McCutchenville, Ohio
Current Conditions -  °F | °C
As of 3:53 PM on Thursday 23 Oct 2014 (Local Time) from KFDY Reporting Station
Clear Clear  
Wind Chill: 58°   Ceiling: Unl
Heat Index: 58°   Visibility: 10mi
Dew Point: 42°   Wind: 5mph
Humidity: 56%   Direction: 10°N
Pressure: 30.15"   Gusts: NA
Location:  40.99°N, 83.26°W
Report Text: KFDY 231953Z AUTO 01004KT 10SM CLR 14/06 A3015 RMK AO2 SLP209 T01440056
Loading
Personal Weather Stations






























Interactive Weather Map
Tropical Storm Tracking
New forecast layout! Learn more

10-Day Weather Forecast

Advertisements
Track Severe Weather on mobile